sensor_id;sensor_type;location;lat;lon;timestamp;temperature;humidity
71436;SHT31;59251;51.326;12.370;2022-10-31T00:01:26;12.13;92.72
71436;SHT31;59251;51.326;12.370;2022-10-31T00:03:52;12.14;92.81
71436;SHT31;59251;51.326;12.370;2022-10-31T00:06:18;12.34;91.89
71436;SHT31;59251;51.326;12.370;2022-10-31T00:08:45;12.55;90.85
71436;SHT31;59251;51.326;12.370;2022-10-31T00:11:10;12.60;90.65
71436;SHT31;59251;51.326;12.370;2022-10-31T00:13:36;12.61;90.11
71436;SHT31;59251;51.326;12.370;2022-10-31T00:16:01;12.77;89.36
71436;SHT31;59251;51.326;12.370;2022-10-31T00:18:27;12.84;88.91
71436;SHT31;59251;51.326;12.370;2022-10-31T00:21:02;12.68;89.12
71436;SHT31;59251;51.326;12.370;2022-10-31T00:23:29;12.71;89.63
71436;SHT31;59251;51.326;12.370;2022-10-31T00:26:02;12.69;89.17
71436;SHT31;59251;51.326;12.370;2022-10-31T00:28:28;12.65;89.26
71436;SHT31;59251;51.326;12.370;2022-10-31T00:30:58;12.53;89.61
71436;SHT31;59251;51.326;12.370;2022-10-31T00:33:24;12.45;89.89
71436;SHT31;59251;51.326;12.370;2022-10-31T00:35:50;12.51;89.94
71436;SHT31;59251;51.326;12.370;2022-10-31T00:38:15;12.50;89.77
71436;SHT31;59251;51.326;12.370;2022-10-31T00:40:41;12.64;89.25
71436;SHT31;59251;51.326;12.370;2022-10-31T00:43:06;12.67;88.85
71436;SHT31;59251;51.326;12.370;2022-10-31T00:45:31;12.61;89.43
71436;SHT31;59251;51.326;12.370;2022-10-31T00:47:57;12.67;89.16
71436;SHT31;59251;51.326;12.370;2022-10-31T00:50:22;12.65;88.88
71436;SHT31;59251;51.326;12.370;2022-10-31T00:52:47;12.47;90.03
71436;SHT31;59251;51.326;12.370;2022-10-31T00:55:13;12.33;90.36
71436;SHT31;59251;51.326;12.370;2022-10-31T00:57:38;12.38;90.18
71436;SHT31;59251;51.326;12.370;2022-10-31T01:00:04;12.30;90.20
71436;SHT31;59251;51.326;12.370;2022-10-31T01:02:30;12.23;90.78
71436;SHT31;59251;51.326;12.370;2022-10-31T01:04:55;12.37;90.19
71436;SHT31;59251;51.326;12.370;2022-10-31T01:07:20;12.36;90.23
71436;SHT31;59251;51.326;12.370;2022-10-31T01:09:46;12.34;90.14
71436;SHT31;59251;51.326;12.370;2022-10-31T01:12:11;12.34;89.90
71436;SHT31;59251;51.326;12.370;2022-10-31T01:14:36;12.30;89.81
71436;SHT31;59251;51.326;12.370;2022-10-31T01:17:02;12.30;89.91
71436;SHT31;59251;51.326;12.370;2022-10-31T01:19:27;12.30;90.11
71436;SHT31;59251;51.326;12.370;2022-10-31T01:21:56;12.33;90.59
71436;SHT31;59251;51.326;12.370;2022-10-31T01:24:21;12.26;90.77
71436;SHT31;59251;51.326;12.370;2022-10-31T01:26:46;12.26;90.82
71436;SHT31;59251;51.326;12.370;2022-10-31T01:29:12;12.20;91.10
71436;SHT31;59251;51.326;12.370;2022-10-31T01:31:38;12.12;91.53
71436;SHT31;59251;51.326;12.370;2022-10-31T01:34:05;12.13;91.09
71436;SHT31;59251;51.326;12.370;2022-10-31T01:36:32;12.05;91.68
71436;SHT31;59251;51.326;12.370;2022-10-31T01:39:01;12.02;91.71
71436;SHT31;59251;51.326;12.370;2022-10-31T01:41:30;11.99;91.77
71436;SHT31;59251;51.326;12.370;2022-10-31T01:44:03;11.96;92.62
71436;SHT31;59251;51.326;12.370;2022-10-31T01:46:36;11.79;93.16
71436;SHT31;59251;51.326;12.370;2022-10-31T01:49:15;11.64;93.60
71436;SHT31;59251;51.326;12.370;2022-10-31T01:51:46;11.57;93.91
71436;SHT31;59251;51.326;12.370;2022-10-31T01:54:16;11.57;93.70
71436;SHT31;59251;51.326;12.370;2022-10-31T01:56:44;11.58;93.62
71436;SHT31;59251;51.326;12.370;2022-10-31T01:59:13;11.59;93.83
71436;SHT31;59251;51.326;12.370;2022-10-31T02:01:40;11.50;94.23
71436;SHT31;59251;51.326;12.370;2022-10-31T02:04:06;11.45;94.05
71436;SHT31;59251;51.326;12.370;2022-10-31T02:06:36;11.37;94.64
71436;SHT31;59251;51.326;12.370;2022-10-31T02:09:05;11.31;94.83
71436;SHT31;59251;51.326;12.370;2022-10-31T02:11:31;11.52;93.89
71436;SHT31;59251;51.326;12.370;2022-10-31T02:13:58;11.51;93.47
71436;SHT31;59251;51.326;12.370;2022-10-31T02:16:25;11.41;94.29
71436;SHT31;59251;51.326;12.370;2022-10-31T02:18:50;11.47;93.68
71436;SHT31;59251;51.326;12.370;2022-10-31T02:30:14;11.44;93.69
71436;SHT31;59251;51.326;12.370;2022-10-31T02:38:26;11.66;92.38
71436;SHT31;59251;51.326;12.370;2022-10-31T02:43:42;11.54;92.52
71436;SHT31;59251;51.326;12.370;2022-10-31T02:49:33;11.26;94.35
71436;SHT31;59251;51.326;12.370;2022-10-31T02:52:00;11.03;95.19
71436;SHT31;59251;51.326;12.370;2022-10-31T02:54:27;10.99;95.41
71436;SHT31;59251;51.326;12.370;2022-10-31T02:57:00;10.96;95.51
71436;SHT31;59251;51.326;12.370;2022-10-31T02:59:29;10.82;96.08
71436;SHT31;59251;51.326;12.370;2022-10-31T03:04:49;10.90;95.62
71436;SHT31;59251;51.326;12.370;2022-10-31T03:10:16;10.86;95.51
71436;SHT31;59251;51.326;12.370;2022-10-31T03:15:32;10.88;95.58
71436;SHT31;59251;51.326;12.370;2022-10-31T03:18:03;10.80;95.82
71436;SHT31;59251;51.326;12.370;2022-10-31T03:20:43;10.88;95.50
71436;SHT31;59251;51.326;12.370;2022-10-31T03:23:14;10.88;95.32
71436;SHT31;59251;51.326;12.370;2022-10-31T03:25:41;10.86;95.54
71436;SHT31;59251;51.326;12.370;2022-10-31T03:28:08;10.84;95.63
71436;SHT31;59251;51.326;12.370;2022-10-31T03:30:37;10.83;95.59
71436;SHT31;59251;51.326;12.370;2022-10-31T03:33:08;10.97;95.34
71436;SHT31;59251;51.326;12.370;2022-10-31T03:35:36;11.09;94.78
71436;SHT31;59251;51.326;12.370;2022-10-31T03:38:05;11.07;94.50
71436;SHT31;59251;51.326;12.370;2022-10-31T03:40:31;11.18;94.30
71436;SHT31;59251;51.326;12.370;2022-10-31T03:43:00;11.18;94.19
71436;SHT31;59251;51.326;12.370;2022-10-31T03:45:30;11.01;94.75
71436;SHT31;59251;51.326;12.370;2022-10-31T03:47:58;11.14;94.61
71436;SHT31;59251;51.326;12.370;2022-10-31T03:50:28;11.21;94.05
71436;SHT31;59251;51.326;12.370;2022-10-31T03:53:06;11.14;94.44
71436;SHT31;59251;51.326;12.370;2022-10-31T03:58:07;10.80;95.70
71436;SHT31;59251;51.326;12.370;2022-10-31T04:00:34;10.96;95.08
71436;SHT31;59251;51.326;12.370;2022-10-31T04:03:26;10.77;95.50
71436;SHT31;59251;51.326;12.370;2022-10-31T04:05:55;10.76;95.57
71436;SHT31;59251;51.326;12.370;2022-10-31T04:08:25;10.70;96.17
71436;SHT31;59251;51.326;12.370;2022-10-31T04:10:52;10.55;96.32
71436;SHT31;59251;51.326;12.370;2022-10-31T04:13:25;10.62;96.15
71436;SHT31;59251;51.326;12.370;2022-10-31T04:15:52;10.52;96.43
71436;SHT31;59251;51.326;12.370;2022-10-31T04:18:19;10.63;96.38
71436;SHT31;59251;51.326;12.370;2022-10-31T04:20:46;10.45;96.86
71436;SHT31;59251;51.326;12.370;2022-10-31T04:23:22;10.66;96.22
71436;SHT31;59251;51.326;12.370;2022-10-31T04:25:49;10.62;95.98
71436;SHT31;59251;51.326;12.370;2022-10-31T04:28:14;10.51;96.38
71436;SHT31;59251;51.326;12.370;2022-10-31T04:30:40;10.48;96.39
71436;SHT31;59251;51.326;12.370;2022-10-31T04:33:05;10.31;96.77
71436;SHT31;59251;51.326;12.370;2022-10-31T04:35:30;10.30;96.78
71436;SHT31;59251;51.326;12.370;2022-10-31T04:37:56;10.08;97.66
71436;SHT31;59251;51.326;12.370;2022-10-31T04:40:21;9.98;98.08
71436;SHT31;59251;51.326;12.370;2022-10-31T04:42:47;9.86;98.58
71436;SHT31;59251;51.326;12.370;2022-10-31T04:45:12;9.90;98.96
71436;SHT31;59251;51.326;12.370;2022-10-31T04:47:37;10.10;97.54
71436;SHT31;59251;51.326;12.370;2022-10-31T04:50:03;9.84;98.74
71436;SHT31;59251;51.326;12.370;2022-10-31T04:52:28;9.87;98.41
71436;SHT31;59251;51.326;12.370;2022-10-31T04:54:54;9.93;97.73
71436;SHT31;59251;51.326;12.370;2022-10-31T04:57:19;10.05;97.78
71436;SHT31;59251;51.326;12.370;2022-10-31T04:59:44;9.97;97.76
71436;SHT31;59251;51.326;12.370;2022-10-31T05:02:10;9.94;97.69
71436;SHT31;59251;51.326;12.370;2022-10-31T05:04:35;9.86;97.87
71436;SHT31;59251;51.326;12.370;2022-10-31T05:07:01;9.79;98.23
71436;SHT31;59251;51.326;12.370;2022-10-31T05:09:26;9.82;98.10
71436;SHT31;59251;51.326;12.370;2022-10-31T05:11:51;9.67;98.75
71436;SHT31;59251;51.326;12.370;2022-10-31T05:14:17;9.55;99.27
71436;SHT31;59251;51.326;12.370;2022-10-31T05:16:42;9.57;99.16
71436;SHT31;59251;51.326;12.370;2022-10-31T05:19:07;9.45;99.69
71436;SHT31;59251;51.326;12.370;2022-10-31T05:21:33;9.67;99.00
71436;SHT31;59251;51.326;12.370;2022-10-31T05:23:58;9.62;98.75
71436;SHT31;59251;51.326;12.370;2022-10-31T05:26:24;9.62;98.76
71436;SHT31;59251;51.326;12.370;2022-10-31T05:28:49;9.65;98.60
71436;SHT31;59251;51.326;12.370;2022-10-31T05:31:14;9.59;98.93
71436;SHT31;59251;51.326;12.370;2022-10-31T05:33:40;9.57;98.70
71436;SHT31;59251;51.326;12.370;2022-10-31T05:36:05;9.53;98.80
71436;SHT31;59251;51.326;12.370;2022-10-31T05:38:31;9.59;98.67
71436;SHT31;59251;51.326;12.370;2022-10-31T05:40:56;9.67;98.49
71436;SHT31;59251;51.326;12.370;2022-10-31T05:43:28;9.45;98.95
71436;SHT31;59251;51.326;12.370;2022-10-31T05:45:54;9.55;98.92
71436;SHT31;59251;51.326;12.370;2022-10-31T05:48:20;9.50;98.93
71436;SHT31;59251;51.326;12.370;2022-10-31T05:50:47;9.57;98.90
71436;SHT31;59251;51.326;12.370;2022-10-31T05:53:13;9.50;98.72
71436;SHT31;59251;51.326;12.370;2022-10-31T05:55:38;9.55;98.78
71436;SHT31;59251;51.326;12.370;2022-10-31T05:58:06;9.65;98.32
71436;SHT31;59251;51.326;12.370;2022-10-31T06:00:31;9.55;98.80
71436;SHT31;59251;51.326;12.370;2022-10-31T06:03:01;9.72;98.64
71436;SHT31;59251;51.326;12.370;2022-10-31T06:05:27;9.82;98.12
71436;SHT31;59251;51.326;12.370;2022-10-31T06:07:53;9.70;97.87
71436;SHT31;59251;51.326;12.370;2022-10-31T06:10:18;9.63;98.40
71436;SHT31;59251;51.326;12.370;2022-10-31T06:12:46;9.59;98.45
71436;SHT31;59251;51.326;12.370;2022-10-31T06:15:11;9.79;98.21
71436;SHT31;59251;51.326;12.370;2022-10-31T06:17:36;9.91;97.76
71436;SHT31;59251;51.326;12.370;2022-10-31T06:20:03;10.03;97.56
71436;SHT31;59251;51.326;12.370;2022-10-31T06:22:29;9.98;97.53
71436;SHT31;59251;51.326;12.370;2022-10-31T06:24:54;9.77;97.59
71436;SHT31;59251;51.326;12.370;2022-10-31T06:27:20;9.69;98.23
71436;SHT31;59251;51.326;12.370;2022-10-31T06:29:45;9.82;98.06
71436;SHT31;59251;51.326;12.370;2022-10-31T06:32:11;9.89;97.20
71436;SHT31;59251;51.326;12.370;2022-10-31T06:34:38;9.83;97.44
71436;SHT31;59251;51.326;12.370;2022-10-31T06:37:05;9.66;98.15
71436;SHT31;59251;51.326;12.370;2022-10-31T06:39:31;9.82;98.00
71436;SHT31;59251;51.326;12.370;2022-10-31T06:41:56;9.90;97.90
71436;SHT31;59251;51.326;12.370;2022-10-31T06:44:22;9.97;97.55
71436;SHT31;59251;51.326;12.370;2022-10-31T06:46:47;9.86;97.28
71436;SHT31;59251;51.326;12.370;2022-10-31T06:49:13;9.94;97.23
71436;SHT31;59251;51.326;12.370;2022-10-31T06:51:38;9.87;97.77
71436;SHT31;59251;51.326;12.370;2022-10-31T06:54:03;9.97;97.71
71436;SHT31;59251;51.326;12.370;2022-10-31T06:56:29;10.08;97.23
71436;SHT31;59251;51.326;12.370;2022-10-31T06:58:54;9.93;97.37
71436;SHT31;59251;51.326;12.370;2022-10-31T07:01:20;10.07;97.14
71436;SHT31;59251;51.326;12.370;2022-10-31T07:03:45;10.11;96.87
71436;SHT31;59251;51.326;12.370;2022-10-31T07:06:10;10.14;97.30
71436;SHT31;59251;51.326;12.370;2022-10-31T07:08:36;10.27;96.89
71436;SHT31;59251;51.326;12.370;2022-10-31T07:11:01;10.40;96.62
71436;SHT31;59251;51.326;12.370;2022-10-31T07:13:26;10.65;96.07
71436;SHT31;59251;51.326;12.370;2022-10-31T07:15:53;10.84;95.29
71436;SHT31;59251;51.326;12.370;2022-10-31T07:18:20;11.06;94.55
71436;SHT31;59251;51.326;12.370;2022-10-31T07:20:46;11.27;93.46
71436;SHT31;59251;51.326;12.370;2022-10-31T07:23:12;11.39;93.40
71436;SHT31;59251;51.326;12.370;2022-10-31T07:25:40;11.52;92.91
71436;SHT31;59251;51.326;12.370;2022-10-31T07:28:06;11.50;93.20
71436;SHT31;59251;51.326;12.370;2022-10-31T07:30:32;11.75;92.62
71436;SHT31;59251;51.326;12.370;2022-10-31T07:32:58;11.74;92.44
71436;SHT31;59251;51.326;12.370;2022-10-31T07:35:26;11.76;92.21
71436;SHT31;59251;51.326;12.370;2022-10-31T07:37:52;11.85;92.26
71436;SHT31;59251;51.326;12.370;2022-10-31T07:40:19;12.14;91.11
71436;SHT31;59251;51.326;12.370;2022-10-31T07:42:46;12.68;89.07
71436;SHT31;59251;51.326;12.370;2022-10-31T07:45:17;12.57;90.14
71436;SHT31;59251;51.326;12.370;2022-10-31T07:50:15;12.53;90.03
71436;SHT31;59251;51.326;12.370;2022-10-31T07:52:41;12.71;89.26
71436;SHT31;59251;51.326;12.370;2022-10-31T07:55:07;12.65;89.72
71436;SHT31;59251;51.326;12.370;2022-10-31T07:57:32;12.68;89.82
71436;SHT31;59251;51.326;12.370;2022-10-31T07:59:58;12.48;90.38
71436;SHT31;59251;51.326;12.370;2022-10-31T08:02:23;12.57;90.58
71436;SHT31;59251;51.326;12.370;2022-10-31T08:04:49;12.75;90.27
71436;SHT31;59251;51.326;12.370;2022-10-31T08:07:14;13.37;87.22
71436;SHT31;59251;51.326;12.370;2022-10-31T08:09:40;13.36;87.73
71436;SHT31;59251;51.326;12.370;2022-10-31T08:12:05;13.60;86.95
71436;SHT31;59251;51.326;12.370;2022-10-31T08:14:31;13.29;87.73
71436;SHT31;59251;51.326;12.370;2022-10-31T08:16:56;13.01;89.18
71436;SHT31;59251;51.326;12.370;2022-10-31T08:19:21;13.47;88.18
71436;SHT31;59251;51.326;12.370;2022-10-31T08:21:50;13.66;87.46
71436;SHT31;59251;51.326;12.370;2022-10-31T08:24:15;13.53;87.28
71436;SHT31;59251;51.326;12.370;2022-10-31T08:26:41;13.94;85.81
71436;SHT31;59251;51.326;12.370;2022-10-31T08:29:06;14.11;85.74
71436;SHT31;59251;51.326;12.370;2022-10-31T08:31:33;14.02;85.71
71436;SHT31;59251;51.326;12.370;2022-10-31T08:33:58;14.15;85.74
71436;SHT31;59251;51.326;12.370;2022-10-31T08:36:23;14.06;86.01
71436;SHT31;59251;51.326;12.370;2022-10-31T08:38:49;14.59;84.48
71436;SHT31;59251;51.326;12.370;2022-10-31T08:41:14;14.60;84.20
71436;SHT31;59251;51.326;12.370;2022-10-31T08:43:40;14.55;84.60
71436;SHT31;59251;51.326;12.370;2022-10-31T08:46:05;14.85;83.67
71436;SHT31;59251;51.326;12.370;2022-10-31T08:48:31;14.79;83.35
71436;SHT31;59251;51.326;12.370;2022-10-31T08:50:58;14.80;84.38
71436;SHT31;59251;51.326;12.370;2022-10-31T08:53:24;14.81;84.14
71436;SHT31;59251;51.326;12.370;2022-10-31T08:55:50;14.67;84.83
71436;SHT31;59251;51.326;12.370;2022-10-31T08:58:18;14.97;83.85
71436;SHT31;59251;51.326;12.370;2022-10-31T09:00:45;15.15;83.40
71436;SHT31;59251;51.326;12.370;2022-10-31T09:03:13;15.27;83.33
71436;SHT31;59251;51.326;12.370;2022-10-31T09:05:39;15.15;83.81
71436;SHT31;59251;51.326;12.370;2022-10-31T09:08:05;15.08;84.04
71436;SHT31;59251;51.326;12.370;2022-10-31T09:10:33;15.21;84.54
71436;SHT31;59251;51.326;12.370;2022-10-31T09:13:03;15.48;83.57
71436;SHT31;59251;51.326;12.370;2022-10-31T09:15:33;15.36;84.30
71436;SHT31;59251;51.326;12.370;2022-10-31T09:17:58;15.77;83.50
71436;SHT31;59251;51.326;12.370;2022-10-31T09:20:24;16.03;83.07
71436;SHT31;59251;51.326;12.370;2022-10-31T09:23:05;15.73;84.30
71436;SHT31;59251;51.326;12.370;2022-10-31T09:25:32;15.67;85.06
71436;SHT31;59251;51.326;12.370;2022-10-31T09:27:59;16.00;84.40
71436;SHT31;59251;51.326;12.370;2022-10-31T09:30:25;16.28;83.41
71436;SHT31;59251;51.326;12.370;2022-10-31T09:33:02;16.21;83.78
71436;SHT31;59251;51.326;12.370;2022-10-31T09:35:28;16.28;83.89
71436;SHT31;59251;51.326;12.370;2022-10-31T09:38:05;16.51;83.53
71436;SHT31;59251;51.326;12.370;2022-10-31T09:40:39;16.65;83.12
71436;SHT31;59251;51.326;12.370;2022-10-31T09:46:00;16.25;84.44
71436;SHT31;59251;51.326;12.370;2022-10-31T09:51:33;16.20;85.14
71436;SHT31;59251;51.326;12.370;2022-10-31T09:54:38;16.25;85.09
71436;SHT31;59251;51.326;12.370;2022-10-31T09:57:11;16.18;85.44
71436;SHT31;59251;51.326;12.370;2022-10-31T09:59:39;16.76;84.24
71436;SHT31;59251;51.326;12.370;2022-10-31T10:02:27;16.44;84.72
71436;SHT31;59251;51.326;12.370;2022-10-31T10:05:03;16.45;84.59
71436;SHT31;59251;51.326;12.370;2022-10-31T10:09:59;16.38;85.13
71436;SHT31;59251;51.326;12.370;2022-10-31T10:17:53;16.71;84.38
71436;SHT31;59251;51.326;12.370;2022-10-31T10:20:29;16.99;83.23
71436;SHT31;59251;51.326;12.370;2022-10-31T10:25:38;17.19;82.61
71436;SHT31;59251;51.326;12.370;2022-10-31T10:28:26;17.13;82.67
71436;SHT31;59251;51.326;12.370;2022-10-31T10:31:13;17.14;82.73
71436;SHT31;59251;51.326;12.370;2022-10-31T10:34:00;17.44;82.05
71436;SHT31;59251;51.326;12.370;2022-10-31T10:41:44;17.28;83.11
71436;SHT31;59251;51.326;12.370;2022-10-31T10:44:10;17.41;82.77
71436;SHT31;59251;51.326;12.370;2022-10-31T10:46:45;17.44;82.56
71436;SHT31;59251;51.326;12.370;2022-10-31T10:49:50;17.44;83.28
71436;SHT31;59251;51.326;12.370;2022-10-31T10:55:11;17.40;83.84
71436;SHT31;59251;51.326;12.370;2022-10-31T11:02:48;17.35;84.55
71436;SHT31;59251;51.326;12.370;2022-10-31T11:05:23;17.52;83.82
71436;SHT31;59251;51.326;12.370;2022-10-31T11:07:48;17.58;83.57
71436;SHT31;59251;51.326;12.370;2022-10-31T11:10:15;18.03;82.15
71436;SHT31;59251;51.326;12.370;2022-10-31T11:12:43;17.90;82.61
71436;SHT31;59251;51.326;12.370;2022-10-31T11:15:21;17.95;82.20
71436;SHT31;59251;51.326;12.370;2022-10-31T11:17:52;17.83;82.58
71436;SHT31;59251;51.326;12.370;2022-10-31T11:22:45;18.09;81.87
71436;SHT31;59251;51.326;12.370;2022-10-31T11:25:37;18.10;82.15
71436;SHT31;59251;51.326;12.370;2022-10-31T11:28:05;18.40;80.73
71436;SHT31;59251;51.326;12.370;2022-10-31T11:30:44;18.44;80.61
71436;SHT31;59251;51.326;12.370;2022-10-31T11:35:48;18.79;79.36
71436;SHT31;59251;51.326;12.370;2022-10-31T11:38:17;18.19;80.59
71436;SHT31;59251;51.326;12.370;2022-10-31T11:40:59;18.43;80.07
71436;SHT31;59251;51.326;12.370;2022-10-31T11:43:26;18.47;79.81
71436;SHT31;59251;51.326;12.370;2022-10-31T11:45:52;18.78;79.38
71436;SHT31;59251;51.326;12.370;2022-10-31T11:48:22;18.61;79.40
71436;SHT31;59251;51.326;12.370;2022-10-31T11:50:55;18.41;79.97
71436;SHT31;59251;51.326;12.370;2022-10-31T11:58:29;19.95;75.41
71436;SHT31;59251;51.326;12.370;2022-10-31T12:00:56;19.75;75.79
71436;SHT31;59251;51.326;12.370;2022-10-31T12:05:51;19.61;76.19
71436;SHT31;59251;51.326;12.370;2022-10-31T12:08:18;19.69;75.99
71436;SHT31;59251;51.326;12.370;2022-10-31T12:13:44;20.52;73.35
71436;SHT31;59251;51.326;12.370;2022-10-31T12:16:20;20.39;73.89
71436;SHT31;59251;51.326;12.370;2022-10-31T12:18:57;20.53;73.90
71436;SHT31;59251;51.326;12.370;2022-10-31T12:22:00;20.59;73.72
71436;SHT31;59251;51.326;12.370;2022-10-31T12:30:23;20.12;75.01
71436;SHT31;59251;51.326;12.370;2022-10-31T12:33:22;20.72;73.64
71436;SHT31;59251;51.326;12.370;2022-10-31T12:46:07;19.87;76.26
71436;SHT31;59251;51.326;12.370;2022-10-31T12:48:47;20.22;75.29
71436;SHT31;59251;51.326;12.370;2022-10-31T12:54:41;20.30;74.52
71436;SHT31;59251;51.326;12.370;2022-10-31T13:01:53;20.21;75.12
71436;SHT31;59251;51.326;12.370;2022-10-31T13:04:38;20.35;75.04
71436;SHT31;59251;51.326;12.370;2022-10-31T13:07:10;20.65;73.81
71436;SHT31;59251;51.326;12.370;2022-10-31T13:09:43;20.77;73.48
71436;SHT31;59251;51.326;12.370;2022-10-31T13:12:14;20.29;74.68
71436;SHT31;59251;51.326;12.370;2022-10-31T13:14:47;20.32;75.17
71436;SHT31;59251;51.326;12.370;2022-10-31T13:17:35;20.21;75.49
71436;SHT31;59251;51.326;12.370;2022-10-31T13:22:53;19.45;77.78
71436;SHT31;59251;51.326;12.370;2022-10-31T13:25:30;19.01;79.13
71436;SHT31;59251;51.326;12.370;2022-10-31T13:28:00;19.56;77.47
71436;SHT31;59251;51.326;12.370;2022-10-31T13:30:32;19.37;78.29
71436;SHT31;59251;51.326;12.370;2022-10-31T13:33:03;20.05;76.29
71436;SHT31;59251;51.326;12.370;2022-10-31T13:44:34;19.69;76.52
71436;SHT31;59251;51.326;12.370;2022-10-31T13:48:57;19.54;77.21
71436;SHT31;59251;51.326;12.370;2022-10-31T13:51:31;19.09;77.92
71436;SHT31;59251;51.326;12.370;2022-10-31T13:53:59;19.56;76.72
71436;SHT31;59251;51.326;12.370;2022-10-31T13:56:33;19.29;77.35
71436;SHT31;59251;51.326;12.370;2022-10-31T13:59:00;19.19;77.49
71436;SHT31;59251;51.326;12.370;2022-10-31T14:01:26;18.71;78.68
71436;SHT31;59251;51.326;12.370;2022-10-31T14:04:01;18.69;78.77
71436;SHT31;59251;51.326;12.370;2022-10-31T14:09:23;18.76;78.71
71436;SHT31;59251;51.326;12.370;2022-10-31T14:11:50;18.67;78.86
71436;SHT31;59251;51.326;12.370;2022-10-31T14:14:17;18.83;78.28
71436;SHT31;59251;51.326;12.370;2022-10-31T14:16:44;18.91;77.98
71436;SHT31;59251;51.326;12.370;2022-10-31T14:19:18;18.72;78.65
71436;SHT31;59251;51.326;12.370;2022-10-31T14:21:46;18.84;78.87
71436;SHT31;59251;51.326;12.370;2022-10-31T14:24:31;18.71;79.09
71436;SHT31;59251;51.326;12.370;2022-10-31T14:29:43;18.78;80.09
71436;SHT31;59251;51.326;12.370;2022-10-31T14:34:50;18.25;81.70
71436;SHT31;59251;51.326;12.370;2022-10-31T14:49:37;17.71;83.64
71436;SHT31;59251;51.326;12.370;2022-10-31T14:52:07;17.68;83.84
71436;SHT31;59251;51.326;12.370;2022-10-31T14:54:39;17.67;84.10
71436;SHT31;59251;51.326;12.370;2022-10-31T14:57:12;17.55;84.45
71436;SHT31;59251;51.326;12.370;2022-10-31T14:59:42;17.51;84.83
71436;SHT31;59251;51.326;12.370;2022-10-31T15:02:09;17.48;84.99
71436;SHT31;59251;51.326;12.370;2022-10-31T15:04:37;17.45;85.28
71436;SHT31;59251;51.326;12.370;2022-10-31T15:07:10;17.42;85.52
71436;SHT31;59251;51.326;12.370;2022-10-31T15:09:37;17.38;85.77
71436;SHT31;59251;51.326;12.370;2022-10-31T15:14:49;17.28;86.27
71436;SHT31;59251;51.326;12.370;2022-10-31T15:17:15;17.23;86.69
71436;SHT31;59251;51.326;12.370;2022-10-31T15:19:41;17.16;86.94
71436;SHT31;59251;51.326;12.370;2022-10-31T15:22:10;17.13;87.12
71436;SHT31;59251;51.326;12.370;2022-10-31T15:24:39;17.13;87.22
71436;SHT31;59251;51.326;12.370;2022-10-31T15:27:04;17.07;87.55
71436;SHT31;59251;51.326;12.370;2022-10-31T15:29:30;17.02;87.87
71436;SHT31;59251;51.326;12.370;2022-10-31T15:32:00;16.93;88.50
71436;SHT31;59251;51.326;12.370;2022-10-31T15:36:58;16.84;88.82
71436;SHT31;59251;51.326;12.370;2022-10-31T15:39:23;16.84;89.00
71436;SHT31;59251;51.326;12.370;2022-10-31T15:41:51;16.79;89.22
71436;SHT31;59251;51.326;12.370;2022-10-31T15:44:26;16.76;89.52
71436;SHT31;59251;51.326;12.370;2022-10-31T15:49:55;16.58;90.40
71436;SHT31;59251;51.326;12.370;2022-10-31T15:55:20;16.44;90.95
71436;SHT31;59251;51.326;12.370;2022-10-31T15:57:51;16.44;90.97
71436;SHT31;59251;51.326;12.370;2022-10-31T16:00:24;16.42;91.11
71436;SHT31;59251;51.326;12.370;2022-10-31T16:03:04;16.40;91.11
71436;SHT31;59251;51.326;12.370;2022-10-31T16:05:53;16.34;91.43
71436;SHT31;59251;51.326;12.370;2022-10-31T16:14:14;16.24;91.71
71436;SHT31;59251;51.326;12.370;2022-10-31T16:16:44;16.17;92.14
71436;SHT31;59251;51.326;12.370;2022-10-31T16:19:28;16.14;92.40
71436;SHT31;59251;51.326;12.370;2022-10-31T16:22:10;16.10;92.65
71436;SHT31;59251;51.326;12.370;2022-10-31T16:24:59;16.11;92.85
71436;SHT31;59251;51.326;12.370;2022-10-31T16:27:30;16.03;93.22
71436;SHT31;59251;51.326;12.370;2022-10-31T16:29:57;15.96;93.36
71436;SHT31;59251;51.326;12.370;2022-10-31T16:37:44;15.80;94.08
71436;SHT31;59251;51.326;12.370;2022-10-31T16:40:14;15.86;94.00
71436;SHT31;59251;51.326;12.370;2022-10-31T16:42:43;15.83;94.05
71436;SHT31;59251;51.326;12.370;2022-10-31T16:45:18;15.79;94.18
71436;SHT31;59251;51.326;12.370;2022-10-31T16:47:43;15.74;94.20
71436;SHT31;59251;51.326;12.370;2022-10-31T16:50:17;15.74;94.33
71436;SHT31;59251;51.326;12.370;2022-10-31T16:52:43;15.71;94.27
71436;SHT31;59251;51.326;12.370;2022-10-31T16:55:14;15.74;94.14
71436;SHT31;59251;51.326;12.370;2022-10-31T16:57:42;15.73;94.19
71436;SHT31;59251;51.326;12.370;2022-10-31T17:00:16;15.67;94.45
71436;SHT31;59251;51.326;12.370;2022-10-31T17:02:43;15.66;94.46
71436;SHT31;59251;51.326;12.370;2022-10-31T17:05:13;15.63;94.66
71436;SHT31;59251;51.326;12.370;2022-10-31T17:07:39;15.55;94.88
71436;SHT31;59251;51.326;12.370;2022-10-31T17:10:05;15.52;94.84
71436;SHT31;59251;51.326;12.370;2022-10-31T17:12:30;15.52;94.85
71436;SHT31;59251;51.326;12.370;2022-10-31T17:14:56;15.50;94.87
71436;SHT31;59251;51.326;12.370;2022-10-31T17:17:22;15.49;94.93
71436;SHT31;59251;51.326;12.370;2022-10-31T17:19:47;15.49;94.89
71436;SHT31;59251;51.326;12.370;2022-10-31T17:22:13;15.46;94.95
71436;SHT31;59251;51.326;12.370;2022-10-31T17:24:39;15.43;95.14
71436;SHT31;59251;51.326;12.370;2022-10-31T17:27:04;15.41;95.00
71436;SHT31;59251;51.326;12.370;2022-10-31T17:29:30;15.32;95.29
71436;SHT31;59251;51.326;12.370;2022-10-31T17:31:56;15.28;95.54
71436;SHT31;59251;51.326;12.370;2022-10-31T17:34:22;15.15;96.11
71436;SHT31;59251;51.326;12.370;2022-10-31T17:36:51;15.07;96.49
71436;SHT31;59251;51.326;12.370;2022-10-31T17:39:18;15.12;96.22
71436;SHT31;59251;51.326;12.370;2022-10-31T17:41:44;15.17;95.93
71436;SHT31;59251;51.326;12.370;2022-10-31T17:44:10;15.11;96.23
71436;SHT31;59251;51.326;12.370;2022-10-31T17:46:36;15.07;96.31
71436;SHT31;59251;51.326;12.370;2022-10-31T17:49:02;15.07;96.40
71436;SHT31;59251;51.326;12.370;2022-10-31T17:51:29;14.95;96.56
71436;SHT31;59251;51.326;12.370;2022-10-31T17:53:56;15.05;96.14
71436;SHT31;59251;51.326;12.370;2022-10-31T17:56:22;15.11;96.01
71436;SHT31;59251;51.326;12.370;2022-10-31T17:58:47;15.11;95.91
71436;SHT31;59251;51.326;12.370;2022-10-31T18:01:14;15.08;96.12
71436;SHT31;59251;51.326;12.370;2022-10-31T18:03:40;15.07;95.89
71436;SHT31;59251;51.326;12.370;2022-10-31T18:06:06;15.01;96.13
71436;SHT31;59251;51.326;12.370;2022-10-31T18:08:35;14.95;96.47